• Join FlightAware (Why Join?)
  • Login
  • US Flag 
06:30AM EDT


 

Airport Tracker/Info


-or-


 

Live Flight TrackerFlight Track Log ✈ PDT4314 ✈ 20-Oct-2013 ✈ KBGM - KPHL

Flight Track Log - Related Links

Times and Time Zones

All times are in EDT time to prevent confusion due to time zone crossing. See the PDT4314 flight status page for this flight to view local times or setup timezone preferences in your user account.

Time Position Orientation Groundspeed Altitude Reporting Facility
EDT Latitude Longitude Course Direction KTS MPH feet Rate Location/Type
07:13PM 41.8303 -75.8563 153° Southeast  Level Estimated
07:14PM 41.7763 -75.8388 161° South  Level Estimated
07:15PM 41.7221 -75.8222 167° South  Level FlightAware Approximate
07:16PM 41.6679 -75.8055 167° South  Level FlightAware Approximate
07:17PM 41.6139 -75.7881 162° South  Level Estimated
07:18PM 41.5603 -75.7686 165° South  Level FlightAware Approximate
07:19PM 41.5066 -75.7491 165° South  Level FlightAware Approximate
07:20PM 41.4530 -75.7296 165° South  Level FlightAware Approximate
07:21PM 41.3993 -75.7102 165° South  Level FlightAware Approximate
07:22PM 41.3452 -75.6932 159° South  Level Estimated
07:23PM 41.2911 -75.6762 163° South  Level Estimated
07:24PM 41.2379 -75.6551 163° South  Level FlightAware Approximate
07:25PM 41.1846 -75.6340 163° South  Level FlightAware Approximate
07:26PM 41.1314 -75.6129 163° South  Level FlightAware Approximate
07:27PM 41.0781 -75.5919 163° South  Level FlightAware Approximate
07:28PM 41.0238 -75.5758 190° South  Level Estimated
07:29PM 40.9686 -75.5677 174° South  Level FlightAware Approximate
07:30PM 40.9133 -75.5597 174° South  Level FlightAware Approximate
07:31PM 40.8581 -75.5517 174° South  Level FlightAware Approximate
07:31PM 40.6333 -75.5833 180° South 254 292 7,000  Level Philadelphia TRACON
07:32PM 40.8041 -75.5344 187° South  Level Estimated
07:32PM 40.5333 -75.5500 166° South 261 300 7,000  Level Philadelphia TRACON
07:33PM 40.7485 -75.5319 178° South  Level FlightAware Approximate
07:33PM 40.4667 -75.5500 180° South 266 306 6,100  Level Philadelphia TRACON
07:34PM 40.6947 -75.5138 190° South  Level Estimated
07:34PM 40.4000 -75.5500 180° South 267 307 5,300  Level Philadelphia TRACON
07:35PM 40.6392 -75.5184 184° South  Level FlightAware Approximate
07:35PM 40.3333 -75.5000 150° Southeast 263 303 4,700  Level Philadelphia TRACON
07:36PM 40.5683 -75.4924 180° South  Level Estimated
07:37PM 40.2667 -75.4333 143° Southeast 264 304 4,000  Level Philadelphia TRACON
07:38PM 40.2000 -75.3833 150° Southeast 240 276 4,000  Level Philadelphia TRACON
07:39PM 40.1333 -75.3333 150° Southeast 241 277 4,000  Level Philadelphia TRACON
07:40PM 40.0833 -75.3000 153° Southeast 241 277 4,000  Level Philadelphia TRACON
07:41PM 40.0333 -75.2500 143° Southeast 242 278 4,000  Level Philadelphia TRACON
07:42PM 39.9667 -75.2167 159° South 238 274 4,000  Level Philadelphia TRACON
07:42PM 39.9333 -75.1667 131° Southeast 210 242 4,000  Level Philadelphia TRACON
07:43PM 39.8833 -75.1333 153° Southeast 216 249 4,000 -780 Level Philadelphia TRACON
07:44PM 39.8333 -75.1000 153° Southeast 206 237 2,500 -1,320 Descending Philadelphia TRACON
07:45PM 39.8000 -75.1500 229° Southwest 162 186 1,600 -600 Descending Philadelphia TRACON
07:47PM 39.8000 -75.2000 270° West 130 150 1,300 -300 Descending Philadelphia TRACON
07:47PM 39.8333 -75.2167 339° North 118 136 1,100 -300 Descending Philadelphia TRACON
07:49PM 39.8667 -75.2333 316° Northwest  Level FlightAware Approximate
07:56PM 39.8722 -75.2409 316° Northwest  Level Estimated